Domov               UVHVVR             MKGP            O straneh              
ZDRAVSTVENO VARSTVO RASTLIN
  MREŽA AGROMET. POSTAJ
 ► PROGNOSTIČNA OBVESTILA
AGROMETEOROLOŠKI PODATKI -
ARSO
OBVLADOVANJE TVEGANJ ZARADI
NEUGODNIH VREMENSKIH RAZMER
  ► NARAVNE NESREČE
  ► SUŠA/MOČA
  ► NAMAKANJE
  ► ŽLED (gozdarstvo)
KARTOGRAFSKI PRIKAZI
SPLETNE POVEZAVE
PROJEKTI IN PUBLIKACIJE

AGROMETEOROLOŠKA MREŽA: VREMENSKE POSTAJE IN FENOLOŠKA OPAZOVANJA

Pregled podatkov za lokacijo Lendava, meteorološka postaja 42840

Pregled senzorjev na lokaciji

ID Ime Zadnja
vrednost
Datum
zadnje
spremembe
Tip
senzorja
2103 Omočenost lista (U) 0 U 23.3.2019 00:30 A730WET
2106 Padavine (mm) 0 mm 23.3.2019 00:30 Rain-O-Matic
2105 Relativna vlaga 2 m (% RH) 34,71 % RH 23.3.2019 00:30 50YA
2104 Temperatura 2 m (°C) 11,57 °C 23.3.2019 00:30 50YA

Pregled podatkov zadnjih 24 ur

Zap.
št.
Datum in čas Lendava
Omočenost
lista
Padavine Relativna
vlaga
2
m
Temperatura
2
m
1 23.3.2019 00:00
2 22.3.2019 23:30 0 0 34,7 11,6
3 22.3.2019 23:00 1 0 43,4 9,5
4 22.3.2019 22:30 1 0 42,8 10,2
5 22.3.2019 22:00 0 0 37 11,8
6 22.3.2019 21:30 0 0 34 12,4
7 22.3.2019 21:00 0 0 30,4 12,9
8 22.3.2019 20:30 0 0 29,2 12,9
9 22.3.2019 20:00 0 0 28,5 13,2
10 22.3.2019 19:30 0 0 28,9 13,4
11 22.3.2019 19:00 0 0 29,5 13,6
12 22.3.2019 18:30 0 0 30,5 13,7
13 22.3.2019 18:00 0 0 29,4 14,9
14 22.3.2019 17:30 0 0 27,2 16,1
15 22.3.2019 17:00 0 0 26 16,3
16 22.3.2019 16:30 0 0 25,9 16,7
17 22.3.2019 16:00 0 0 25,3 16,4
18 22.3.2019 15:30 0 0 24,9 16,6
19 22.3.2019 15:00 0 0 28,8 16
20 22.3.2019 14:30 0 0 29,6 15,6
21 22.3.2019 14:00 0 0 29,4 15,3
22 22.3.2019 13:30 0 0 31 14,9
23 22.3.2019 13:00 0 0 31,6 14,3
24 22.3.2019 12:30 0 0 35,5 13,8
25 22.3.2019 12:00 0 0 36,2 13,2
26 22.3.2019 11:30 0 0 41,5 12,2
27 22.3.2019 11:00 0 0 45,5 11
28 22.3.2019 10:30 0 0 53,9 9,3
29 22.3.2019 10:00 0 0 60,3 7,6
30 22.3.2019 09:30 0 0 64 5,9
31 22.3.2019 09:00 0 0 64,5 4,7
32 22.3.2019 08:30 0 0 61,9 4,3
33 22.3.2019 08:00 0 0 64,7 3,7
34 22.3.2019 07:30 1 0 65,3 3,2
35 22.3.2019 07:00 2 0 65,8 3,1
36 22.3.2019 06:30 3 0 66,4 3,1
37 22.3.2019 06:00 3 0 65,2 3,3
38 22.3.2019 05:30 2 0 62,5 3,9
39 22.3.2019 05:00 2 0 63,1 3,8
40 22.3.2019 04:30 2 0 62,5 4,1
41 22.3.2019 04:00 2 0 61,3 4,5
42 22.3.2019 03:30 2 0 62,6 4,3
43 22.3.2019 03:00 2 0 61,9 4,5
44 22.3.2019 02:30 2 0 58,3 4,9
45 22.3.2019 02:00 2 0 57,5 5,5
46 22.3.2019 01:30 5 0 64,3 4,3
47 22.3.2019 01:00 6 0 66,6 3,7
48 22.3.2019 00:30 3 0 58,7 4,6
© 2011 Ministrstvo za kmetijstvo, gozdarstvo in prehrano. Vse pravice pridržane.